createdAt,value
2022-10-14T00:01:13.332Z,101462.78
2022-10-14T00:03:40.633Z,101458.31
2022-10-14T00:06:20.552Z,101464.25
2022-10-14T00:08:47.643Z,101459.06
2022-10-14T00:11:18.043Z,101465.06
2022-10-14T00:13:45.536Z,101456.50
2022-10-14T00:16:18.854Z,101456.50
2022-10-14T00:18:46.121Z,101466.94
2022-10-14T00:21:13.631Z,101458.28
2022-10-14T00:23:40.677Z,101460.78
2022-10-14T00:26:18.297Z,101453.94
2022-10-14T00:28:45.404Z,101449.66
2022-10-14T00:31:12.486Z,101444.28
2022-10-14T00:33:39.554Z,101444.34
2022-10-14T00:36:07.316Z,101451.31
2022-10-14T00:38:35.636Z,101450.31
2022-10-14T00:41:03.092Z,101442.56
2022-10-14T00:43:49.357Z,101439.06
2022-10-14T00:46:16.381Z,101444.09
2022-10-14T00:48:43.382Z,101433.75
2022-10-14T00:51:10.552Z,101421.66
2022-10-14T00:53:44.238Z,101417.22
2022-10-14T00:56:13.260Z,101428.53
2022-10-14T00:58:40.627Z,101423.22
2022-10-14T01:01:08.062Z,101424.16
2022-10-14T01:03:35.246Z,101424.97
2022-10-14T01:06:18.020Z,101418.88
2022-10-14T01:08:55.507Z,101405.00
2022-10-14T01:11:38.458Z,101400.59
2022-10-14T01:14:52.935Z,101394.50
2022-10-14T01:17:57.175Z,101392.84
2022-10-14T01:20:45.602Z,101389.25
2022-10-14T01:23:34.057Z,101374.47
2022-10-14T01:26:36.992Z,101376.16
2022-10-14T01:29:41.021Z,101374.47
2022-10-14T01:32:16.377Z,101358.91
2022-10-14T01:34:53.794Z,101368.41
2022-10-14T01:37:26.566Z,101360.78
2022-10-14T01:40:01.434Z,101352.16
2022-10-14T01:42:33.762Z,101335.59
2022-10-14T01:45:14.110Z,101339.22
2022-10-14T01:47:42.388Z,101346.22
2022-10-14T01:50:14.432Z,101348.84
2022-10-14T01:52:50.727Z,101353.13
2022-10-14T01:55:23.085Z,101358.25
2022-10-14T01:57:52.240Z,101353.97
2022-10-14T02:00:19.610Z,101351.38
2022-10-14T02:02:46.965Z,101356.72
2022-10-14T02:05:21.390Z,101368.78
2022-10-14T02:07:52.536Z,101381.06
2022-10-14T02:10:38.246Z,101381.06
2022-10-14T02:13:46.856Z,101371.53
2022-10-14T02:16:34.486Z,101371.47
2022-10-14T02:19:20.087Z,101367.19
2022-10-14T02:21:54.061Z,101359.47
2022-10-14T02:24:30.088Z,101359.47
2022-10-14T02:27:01.856Z,101363.66
2022-10-14T02:29:31.442Z,101352.50
2022-10-14T02:32:00.104Z,101349.88
2022-10-14T02:34:27.362Z,101349.13
2022-10-14T02:36:56.286Z,101350.88
2022-10-14T02:39:35.631Z,101351.81
2022-10-14T02:42:03.341Z,101341.44
2022-10-14T02:44:30.441Z,101353.63
2022-10-14T02:46:57.483Z,101350.25
2022-10-14T02:49:24.777Z,101344.16
2022-10-14T02:51:52.045Z,101341.72
2022-10-14T02:54:19.157Z,101338.34
2022-10-14T02:56:46.164Z,101330.66
2022-10-14T02:59:13.649Z,101317.78
2022-10-14T03:01:40.664Z,101318.69
2022-10-14T03:04:07.848Z,101313.59
2022-10-14T03:06:34.872Z,101315.31
2022-10-14T03:09:01.892Z,101309.19
2022-10-14T03:11:28.959Z,101311.81
2022-10-14T03:13:55.980Z,101305.03
2022-10-14T03:16:22.997Z,101307.72
2022-10-14T03:18:50.072Z,101301.72
2022-10-14T03:21:17.137Z,101295.72
2022-10-14T03:23:44.145Z,101306.13
2022-10-14T03:26:13.952Z,101308.81
2022-10-14T03:28:41.343Z,101302.00
2022-10-14T03:31:08.443Z,101299.41
2022-10-14T03:33:35.504Z,101296.16
2022-10-14T03:36:02.523Z,101291.06
2022-10-14T03:38:29.693Z,101288.59
2022-10-14T03:40:56.731Z,101299.84
2022-10-14T03:43:23.837Z,101283.53
2022-10-14T03:45:50.902Z,101280.16
2022-10-14T03:48:17.886Z,101280.19
2022-10-14T03:50:44.912Z,101272.53
2022-10-14T03:53:13.344Z,101267.31
2022-10-14T03:55:40.646Z,101262.06
2022-10-14T03:58:07.667Z,101265.59
2022-10-14T04:00:35.764Z,101269.97
2022-10-14T04:03:02.853Z,101270.84
2022-10-14T04:05:33.653Z,101258.00
2022-10-14T04:08:01.647Z,101251.06
2022-10-14T04:10:28.851Z,101256.13
2022-10-14T04:12:56.534Z,101252.00
2022-10-14T04:15:24.027Z,101240.88
2022-10-14T04:17:51.083Z,101246.94
2022-10-14T04:20:18.293Z,101230.34
2022-10-14T04:22:45.399Z,101236.53
2022-10-14T04:25:12.648Z,101228.84
2022-10-14T04:27:39.731Z,101229.78
2022-10-14T04:30:07.462Z,101234.09
2022-10-14T04:32:34.604Z,101235.84
2022-10-14T04:35:01.951Z,101236.69
2022-10-14T04:37:30.041Z,101241.16
2022-10-14T04:39:57.135Z,101233.34
2022-10-14T04:42:24.428Z,101219.59
2022-10-14T04:44:52.111Z,101223.00
2022-10-14T04:47:19.173Z,101228.25
2022-10-14T04:49:46.214Z,101229.25
2022-10-14T04:52:13.938Z,101218.91
2022-10-14T04:54:40.953Z,101215.50
2022-10-14T04:57:08.097Z,101212.13
2022-10-14T04:59:35.220Z,101212.00
2022-10-14T05:02:02.256Z,101222.50
2022-10-14T05:04:29.406Z,101207.00
2022-10-14T05:06:56.471Z,101203.69
2022-10-14T05:09:24.465Z,101194.13
2022-10-14T05:11:52.064Z,101198.41
2022-10-14T05:14:19.072Z,101188.00
2022-10-14T05:16:46.095Z,101181.13
2022-10-14T05:19:13.672Z,101181.91
2022-10-14T05:21:40.994Z,101185.41
2022-10-14T05:24:07.994Z,101177.56
2022-10-14T05:26:35.115Z,101171.56
2022-10-14T05:29:02.213Z,101166.50
2022-10-14T05:31:29.353Z,101160.47
2022-10-14T05:33:56.381Z,101160.50
2022-10-14T05:36:23.994Z,101164.84
2022-10-14T05:38:51.026Z,101151.94
2022-10-14T05:41:18.036Z,101154.53
2022-10-14T05:43:45.048Z,101146.75
2022-10-14T05:46:14.409Z,101142.47
2022-10-14T05:48:41.654Z,101138.41
2022-10-14T05:51:09.822Z,101147.94
2022-10-14T05:53:39.173Z,101139.22
2022-10-14T05:56:08.779Z,101149.00
2022-10-14T05:58:35.809Z,101129.06
2022-10-14T06:01:04.213Z,101140.53
2022-10-14T06:03:31.906Z,101120.72
2022-10-14T06:05:59.281Z,101126.81
2022-10-14T06:08:26.305Z,101123.38
2022-10-14T06:10:53.811Z,101115.72
2022-10-14T06:13:21.999Z,101111.47
2022-10-14T06:15:49.019Z,101123.63
2022-10-14T06:18:16.025Z,101120.31
2022-10-14T06:20:43.239Z,101112.63
2022-10-14T06:23:10.242Z,101103.09
2022-10-14T06:25:37.274Z,101100.63
2022-10-14T06:28:05.483Z,101098.97
2022-10-14T06:30:33.157Z,101095.56
2022-10-14T06:33:00.182Z,101094.03
2022-10-14T06:35:27.988Z,101096.59
2022-10-14T06:37:55.864Z,101092.38
2022-10-14T06:40:22.888Z,101100.22
2022-10-14T06:42:49.937Z,101094.22
2022-10-14T06:45:17.023Z,101094.31
2022-10-14T06:47:44.107Z,101090.06
2022-10-14T06:50:11.139Z,101091.91
2022-10-14T06:52:38.156Z,101091.09
2022-10-14T06:55:05.922Z,101085.34
2022-10-14T06:57:33.112Z,101077.59
2022-10-14T07:00:00.131Z,101088.97
2022-10-14T07:02:27.146Z,101077.69
2022-10-14T07:04:54.155Z,101077.66
2022-10-14T07:07:21.867Z,101076.84
2022-10-14T07:09:48.987Z,101083.91
2022-10-14T07:12:16.009Z,101081.38
2022-10-14T07:14:42.999Z,101083.19
2022-10-14T07:17:09.976Z,101077.09
2022-10-14T07:19:36.968Z,101070.25
2022-10-14T07:22:05.151Z,101069.41
2022-10-14T07:24:32.428Z,101080.81
2022-10-14T07:26:59.584Z,101073.94
2022-10-14T07:29:26.617Z,101075.72
2022-10-14T07:31:54.136Z,101069.66
2022-10-14T07:34:21.244Z,101066.16
2022-10-14T07:36:48.508Z,101074.00
2022-10-14T07:39:15.999Z,101071.56
2022-10-14T07:41:43.231Z,101077.81
2022-10-14T07:44:13.662Z,101071.00
2022-10-14T07:46:44.061Z,101076.19
2022-10-14T07:49:15.373Z,101067.59
2022-10-14T07:51:43.443Z,101068.47
2022-10-14T07:54:16.534Z,101053.84
2022-10-14T07:56:45.030Z,101077.34
2022-10-14T07:59:12.666Z,101081.84
2022-10-14T08:01:40.166Z,101071.47
2022-10-14T08:04:07.177Z,101062.78
2022-10-14T08:06:34.165Z,101068.84
2022-10-14T08:09:01.173Z,101061.09
2022-10-14T08:11:28.861Z,101062.91
2022-10-14T08:13:58.463Z,101061.16
2022-10-14T08:16:31.748Z,101069.78
2022-10-14T08:19:01.198Z,101060.34
2022-10-14T08:21:28.827Z,101054.28
2022-10-14T08:23:56.441Z,101046.53
2022-10-14T08:26:30.989Z,101061.34
2022-10-14T08:28:59.732Z,101057.06
2022-10-14T08:31:27.548Z,101053.59
2022-10-14T08:33:55.923Z,101056.22
2022-10-14T08:36:22.993Z,101054.47
2022-10-14T08:38:52.285Z,101055.38
2022-10-14T08:41:43.669Z,101056.34
2022-10-14T08:44:47.947Z,101053.78
2022-10-14T08:47:20.755Z,101055.53
2022-10-14T08:49:59.701Z,101048.69
2022-10-14T08:52:37.803Z,101045.16
2022-10-14T08:55:14.700Z,101050.34
2022-10-14T08:57:54.108Z,101049.63
2022-10-14T09:00:22.169Z,101058.34
2022-10-14T09:02:52.869Z,101053.19
2022-10-14T09:05:26.020Z,101034.16
2022-10-14T09:07:56.505Z,101031.63
2022-10-14T09:10:34.641Z,101028.19
2022-10-14T09:13:30.922Z,101038.72
2022-10-14T09:16:05.422Z,101043.13
2022-10-14T09:18:40.478Z,101037.06
2022-10-14T09:21:33.760Z,101041.47
2022-10-14T09:24:28.401Z,101035.47
2022-10-14T09:27:00.959Z,101030.25
2022-10-14T09:29:49.166Z,101026.00
2022-10-14T09:32:26.344Z,101010.34
2022-10-14T09:34:56.307Z,101026.88
2022-10-14T09:37:34.423Z,101027.78
2022-10-14T09:40:03.261Z,101017.44
2022-10-14T09:42:48.834Z,101009.66
2022-10-14T09:45:19.518Z,101008.78
2022-10-14T09:48:03.654Z,101013.16
2022-10-14T09:50:35.735Z,101015.81
2022-10-14T09:53:15.191Z,101007.16
2022-10-14T09:55:53.389Z,100985.41
2022-10-14T09:58:35.456Z,100989.72
2022-10-14T10:01:02.994Z,100999.28
2022-10-14T10:03:35.614Z,100988.88
2022-10-14T10:06:08.928Z,101000.22
2022-10-14T10:08:39.344Z,100987.22
2022-10-14T10:11:11.058Z,100998.47
2022-10-14T10:13:46.630Z,100984.56
2022-10-14T10:16:23.198Z,100988.03
2022-10-14T10:18:52.133Z,100989.78
2022-10-14T10:21:25.946Z,100987.19
2022-10-14T10:24:03.554Z,100985.47
2022-10-14T10:26:33.286Z,100983.78
2022-10-14T10:29:05.459Z,100980.28
2022-10-14T10:31:52.094Z,100983.81
2022-10-14T10:34:46.746Z,100981.25
2022-10-14T10:37:19.659Z,100973.50
2022-10-14T10:40:03.434Z,100976.09
2022-10-14T10:42:48.657Z,100970.06
2022-10-14T10:45:39.107Z,100974.41
2022-10-14T10:48:08.841Z,100975.25
2022-10-14T10:50:56.127Z,100971.78
2022-10-14T10:53:43.445Z,100967.47
2022-10-14T10:56:34.259Z,100962.25
2022-10-14T10:59:20.658Z,100953.59
2022-10-14T11:02:07.351Z,100957.09
2022-10-14T11:04:45.498Z,100950.09
2022-10-14T11:07:48.630Z,100942.28
2022-10-14T11:10:49.288Z,100942.31
2022-10-14T11:13:33.160Z,100940.56
2022-10-14T11:16:10.436Z,100941.44
2022-10-14T11:19:01.216Z,100942.31
2022-10-14T11:21:47.228Z,100940.56
2022-10-14T11:24:26.315Z,100936.28
2022-10-14T11:27:27.436Z,100938.84
2022-10-14T11:30:10.613Z,100937.97
2022-10-14T11:33:00.813Z,100940.56
2022-10-14T11:35:48.098Z,100927.50
2022-10-14T11:38:48.619Z,100929.25
2022-10-14T11:41:57.325Z,100904.94
2022-10-14T11:44:31.339Z,100898.84
2022-10-14T11:47:04.487Z,100908.44
2022-10-14T11:49:44.341Z,100909.31
2022-10-14T11:52:19.842Z,100894.50
2022-10-14T11:55:14.739Z,100894.53
2022-10-14T11:57:49.969Z,100893.72
2022-10-14T12:00:21.064Z,100883.31
2022-10-14T12:03:08.455Z,100883.31
2022-10-14T12:05:38.184Z,100883.31
2022-10-14T12:08:09.672Z,100885.94
2022-10-14T12:10:45.516Z,100876.38
2022-10-14T12:13:17.026Z,100885.06
2022-10-14T12:15:49.388Z,100869.44
2022-10-14T12:18:16.376Z,100872.91
2022-10-14T12:21:04.940Z,100879.84
2022-10-14T12:23:38.248Z,100873.75
2022-10-14T12:26:33.331Z,100864.22
2022-10-14T12:29:03.906Z,100860.75
2022-10-14T12:31:38.764Z,100867.69
2022-10-14T12:34:11.473Z,100861.63
2022-10-14T12:36:40.395Z,100851.19
2022-10-14T12:39:19.495Z,100846.84
2022-10-14T12:42:10.095Z,100839.03
2022-10-14T12:44:56.205Z,100839.00
2022-10-14T12:47:32.048Z,100849.44
2022-10-14T12:50:04.547Z,100841.63
2022-10-14T12:52:39.924Z,100839.03
2022-10-14T12:55:17.565Z,100832.97
2022-10-14T12:57:56.145Z,100821.66
2022-10-14T13:00:23.115Z,100819.03
2022-10-14T13:02:56.606Z,100819.94
2022-10-14T13:05:32.585Z,100810.38
2022-10-14T13:08:21.021Z,100818.19
2022-10-14T13:10:59.788Z,100812.97
2022-10-14T13:13:54.201Z,100814.69
2022-10-14T13:16:25.402Z,100810.38
2022-10-14T13:18:58.822Z,100809.50
2022-10-14T13:21:34.644Z,100807.75
2022-10-14T13:24:16.820Z,100812.13
2022-10-14T13:26:55.081Z,100807.75
2022-10-14T13:29:51.647Z,100804.28
2022-10-14T13:32:23.709Z,100799.94
2022-10-14T13:35:16.810Z,100801.69
2022-10-14T13:38:12.534Z,100810.38
2022-10-14T13:40:44.898Z,100819.94
2022-10-14T13:43:36.521Z,100819.06
2022-10-14T13:46:15.239Z,100812.06
2022-10-14T13:48:48.550Z,100818.16
2022-10-14T13:51:32.024Z,100808.56
2022-10-14T13:54:15.271Z,100808.59
2022-10-14T13:56:43.124Z,100806.84
2022-10-14T13:59:44.028Z,100804.22
2022-10-14T14:02:30.118Z,100799.00
2022-10-14T14:04:59.549Z,100799.91
2022-10-14T14:08:22.145Z,100789.47
2022-10-14T14:10:25.276Z,100789.50
2022-10-14T14:12:52.746Z,100793.84
2022-10-14T14:15:25.181Z,100785.16
2022-10-14T14:17:52.924Z,100780.81
2022-10-14T14:20:28.323Z,100781.66
2022-10-14T14:22:58.421Z,100780.78
2022-10-14T14:25:35.045Z,100783.38
2022-10-14T14:28:05.960Z,100785.97
2022-10-14T14:30:35.839Z,100774.69
2022-10-14T14:33:15.401Z,100774.69
2022-10-14T14:35:52.214Z,100774.72
2022-10-14T14:38:31.165Z,100765.13
2022-10-14T14:41:01.820Z,100776.44
2022-10-14T14:43:34.580Z,100779.06
2022-10-14T14:46:03.688Z,100779.03
2022-10-14T14:48:31.266Z,100776.47
2022-10-14T14:50:59.113Z,100779.94
2022-10-14T14:53:29.741Z,100775.56
2022-10-14T14:55:56.771Z,100773.84
2022-10-14T14:58:29.575Z,100777.34
2022-10-14T15:00:57.047Z,100777.31
2022-10-14T15:03:27.478Z,100782.56
2022-10-14T15:06:03.971Z,100777.34
2022-10-14T15:08:37.843Z,100775.59
2022-10-14T15:11:06.160Z,100766.94
2022-10-14T15:13:38.969Z,100777.34
2022-10-14T15:16:07.021Z,100767.78
2022-10-14T15:18:37.373Z,100768.66
2022-10-14T15:21:19.194Z,100767.78
2022-10-14T15:23:49.030Z,100765.19
2022-10-14T15:26:28.422Z,100766.94
2022-10-14T15:32:01.614Z,100752.16
2022-10-14T15:34:29.287Z,100740.91
2022-10-14T15:36:56.346Z,100746.13
2022-10-14T15:39:23.457Z,100739.19
2022-10-14T15:41:50.867Z,100751.34
2022-10-14T15:44:18.062Z,100740.91
2022-10-14T15:47:04.948Z,100746.09
2022-10-14T15:49:40.513Z,100736.53
2022-10-14T15:52:15.446Z,100745.25
2022-10-14T15:54:44.254Z,100740.00
2022-10-14T15:57:15.553Z,100739.16
2022-10-14T15:59:43.791Z,100732.22
2022-10-14T16:02:25.416Z,100729.59
2022-10-14T16:07:46.190Z,100734.78
2022-10-14T16:10:16.084Z,100712.22
2022-10-14T16:12:43.592Z,100728.72
2022-10-14T16:15:33.877Z,100742.59
2022-10-14T16:18:01.930Z,100726.97
2022-10-14T16:20:30.891Z,100731.31
2022-10-14T16:22:58.472Z,100734.78
2022-10-14T16:25:32.842Z,100733.03
2022-10-14T16:28:00.513Z,100720.00
2022-10-14T16:30:28.743Z,100726.09
2022-10-14T16:32:56.140Z,100726.94
2022-10-14T16:35:23.157Z,100714.81
2022-10-14T16:37:50.171Z,100720.88
2022-10-14T16:40:17.344Z,100726.91
2022-10-14T16:42:44.386Z,100726.94
2022-10-14T16:45:12.019Z,100719.97
2022-10-14T16:47:40.723Z,100732.09
2022-10-14T16:50:09.640Z,100732.09
2022-10-14T16:52:56.115Z,100730.31
2022-10-14T16:55:23.421Z,100733.81
2022-10-14T16:57:50.520Z,100744.22
2022-10-14T17:02:45.986Z,100738.97
2022-10-14T17:05:13.906Z,100748.50
2022-10-14T17:07:41.388Z,100739.81
2022-10-14T17:10:08.910Z,100753.69
2022-10-14T17:12:36.533Z,100758.03
2022-10-14T17:15:04.198Z,100761.47
2022-10-14T17:17:31.762Z,100746.75
2022-10-14T17:19:59.060Z,100742.41
2022-10-14T17:22:26.675Z,100742.38
2022-10-14T17:24:55.284Z,100739.81
2022-10-14T17:27:24.281Z,100738.03
2022-10-14T17:29:51.502Z,100733.69
2022-10-14T17:32:18.703Z,100738.00
2022-10-14T17:34:45.850Z,100734.56
2022-10-14T17:37:12.906Z,100742.31
2022-10-14T17:39:39.991Z,100738.88
2022-10-14T17:42:07.022Z,100746.59
2022-10-14T17:44:34.169Z,100741.38
2022-10-14T17:47:02.018Z,100750.91
2022-10-14T17:49:31.057Z,100757.88
2022-10-14T17:52:02.306Z,100760.44
2022-10-14T17:54:30.242Z,100761.28
2022-10-14T17:56:57.488Z,100763.03
2022-10-14T17:59:26.896Z,100762.19
2022-10-14T18:02:04.028Z,100754.34
2022-10-14T18:04:32.500Z,100760.41
2022-10-14T18:06:59.948Z,100755.22
2022-10-14T18:09:26.978Z,100756.06
2022-10-14T18:12:10.370Z,100757.78
2022-10-14T18:14:38.697Z,100758.63
2022-10-14T18:17:06.197Z,100749.06
2022-10-14T18:19:33.673Z,100740.38
2022-10-14T18:22:00.748Z,100729.09
2022-10-14T18:24:27.827Z,100732.59
2022-10-14T18:26:58.333Z,100735.19
2022-10-14T18:29:26.111Z,100730.84
2022-10-14T18:31:53.162Z,100718.69
2022-10-14T18:34:21.901Z,100735.16
2022-10-14T18:36:48.991Z,100728.22
2022-10-14T18:39:16.093Z,100734.25
2022-10-14T18:41:43.879Z,100723.84
2022-10-14T18:44:11.010Z,100717.81
2022-10-14T18:46:39.274Z,100713.44
2022-10-14T18:49:08.463Z,100706.50
2022-10-14T18:51:37.607Z,100701.34
2022-10-14T18:54:07.861Z,100711.69
2022-10-14T18:56:38.727Z,100710.84
2022-10-14T18:59:10.064Z,100704.78
2022-10-14T19:01:39.194Z,100706.47
2022-10-14T19:04:08.309Z,100703.88
2022-10-14T19:06:36.166Z,100705.63
2022-10-14T19:09:04.017Z,100709.06
2022-10-14T19:11:33.636Z,100703.03
2022-10-14T19:14:05.284Z,100703.00
2022-10-14T19:16:36.525Z,100711.66
2022-10-14T19:19:07.602Z,100711.63
2022-10-14T19:21:34.946Z,100703.84
2022-10-14T19:24:03.134Z,100701.22
2022-10-14T19:26:33.050Z,100702.03
2022-10-14T19:29:02.296Z,100695.94
2022-10-14T19:31:31.757Z,100700.22
2022-10-14T19:34:06.923Z,100700.25
2022-10-14T19:36:36.713Z,100701.06
2022-10-14T19:39:05.382Z,100706.22
2022-10-14T19:41:35.034Z,100707.91
2022-10-14T19:44:02.023Z,100709.66
2022-10-14T19:46:29.533Z,100704.50
2022-10-14T19:48:59.104Z,100706.22
2022-10-14T19:51:27.135Z,100709.63
2022-10-14T19:53:56.155Z,100706.13
2022-10-14T19:56:26.216Z,100704.34
2022-10-14T19:58:56.158Z,100713.88
2022-10-14T20:01:25.491Z,100697.34
2022-10-14T20:03:54.474Z,100706.03
2022-10-14T20:06:23.228Z,100700.00
2022-10-14T20:08:51.290Z,100705.19
2022-10-14T20:11:23.318Z,100710.31
2022-10-14T20:13:50.786Z,100706.88
2022-10-14T20:16:17.999Z,100699.06
2022-10-14T20:18:45.104Z,100694.75
2022-10-14T20:21:14.676Z,100693.88
2022-10-14T20:23:42.322Z,100691.22
2022-10-14T20:26:17.162Z,100697.25
2022-10-14T20:28:44.272Z,100693.81
2022-10-14T20:31:13.671Z,100699.84
2022-10-14T20:33:41.107Z,100688.56
2022-10-14T20:36:12.942Z,100684.91
2022-10-14T20:38:40.625Z,100693.66
2022-10-14T20:41:13.635Z,100686.66
2022-10-14T20:43:42.034Z,100692.59
2022-10-14T20:46:09.837Z,100698.72
2022-10-14T20:48:37.414Z,100686.56
2022-10-14T20:51:05.861Z,100696.06
2022-10-14T20:53:33.353Z,100698.59
2022-10-14T20:56:09.202Z,100696.91
2022-10-14T20:58:36.506Z,100685.69
2022-10-14T21:01:17.493Z,100693.44
2022-10-14T21:03:46.191Z,100691.72
2022-10-14T21:06:16.528Z,100683.09
2022-10-14T21:08:43.589Z,100689.97
2022-10-14T21:11:15.350Z,100680.44
2022-10-14T21:13:51.507Z,100689.97
2022-10-14T21:16:42.085Z,100695.97
2022-10-14T21:19:10.027Z,100695.06
2022-10-14T21:21:39.956Z,100700.22
2022-10-14T21:24:08.769Z,100703.69
2022-10-14T21:26:35.823Z,100706.28
2022-10-14T21:29:03.770Z,100704.59
2022-10-14T21:31:31.645Z,100703.78
2022-10-14T21:34:05.492Z,100699.47
2022-10-14T21:36:37.479Z,100693.44
2022-10-14T21:39:12.840Z,100702.13
2022-10-14T21:41:40.585Z,100698.63
2022-10-14T21:44:08.538Z,100698.72
2022-10-14T21:46:35.750Z,100691.84
2022-10-14T21:49:02.854Z,100698.75
2022-10-14T21:51:30.648Z,100703.16
2022-10-14T21:53:58.011Z,100697.06
2022-10-14T21:56:26.438Z,100672.84
2022-10-14T21:58:53.495Z,100685.88
2022-10-14T22:01:23.003Z,100678.13
2022-10-14T22:03:55.624Z,100689.34
2022-10-14T22:06:22.719Z,100683.22
2022-10-14T22:08:51.203Z,100674.53
2022-10-14T22:11:28.345Z,100677.13
2022-10-14T22:13:57.856Z,100674.59
2022-10-14T22:16:28.775Z,100673.72
2022-10-14T22:19:00.974Z,100665.91
2022-10-14T22:21:30.398Z,100664.16
2022-10-14T22:23:58.779Z,100662.41
2022-10-14T22:26:29.966Z,100663.25
2022-10-14T22:29:08.088Z,100648.50
2022-10-14T22:31:35.129Z,100651.94
2022-10-14T22:34:06.114Z,100661.41
2022-10-14T22:36:34.660Z,100653.59
2022-10-14T22:39:03.889Z,100663.09
2022-10-14T22:41:35.233Z,100656.94
2022-10-14T22:44:04.614Z,100662.09
2022-10-14T22:46:33.579Z,100659.44
2022-10-14T22:49:01.756Z,100658.59
2022-10-14T22:51:40.186Z,100664.63
2022-10-14T22:54:07.478Z,100663.69
2022-10-14T22:56:34.523Z,100660.28
2022-10-14T22:59:09.884Z,100649.97
2022-10-14T23:01:38.759Z,100645.56
2022-10-14T23:04:06.923Z,100653.31
2022-10-14T23:06:33.929Z,100654.25
2022-10-14T23:09:01.142Z,100647.19
2022-10-14T23:11:29.994Z,100649.78
2022-10-14T23:13:58.270Z,100644.56
2022-10-14T23:16:28.395Z,100648.84
2022-10-14T23:18:56.222Z,100635.88
2022-10-14T23:21:31.919Z,100641.06
2022-10-14T23:24:02.956Z,100630.69
2022-10-14T23:26:31.669Z,100624.66
2022-10-14T23:29:00.001Z,100624.63
2022-10-14T23:31:32.452Z,100629.78
2022-10-14T23:34:05.443Z,100620.16
2022-10-14T23:36:32.901Z,100632.28
2022-10-14T23:38:59.997Z,100633.97
2022-10-14T23:41:27.063Z,100633.06
2022-10-14T23:43:56.178Z,100617.50
2022-10-14T23:46:23.647Z,100637.44
2022-10-14T23:49:01.191Z,100630.44
2022-10-14T23:51:34.491Z,100640.88
2022-10-14T23:54:01.556Z,100656.47
2022-10-14T23:56:28.578Z,100647.84
2022-10-14T23:58:56.276Z,100636.66
